KMLJ/MLJ METAR and TAF weather

Enter ICAO airport designator
Station Type Date Time Source
KMLJ METAR 2021/09/16 20:55 UTC NOAA

KMLJ 162055Z AUTO 07006KT 10SM 26/23 A3003 RMK AO2


Station Type Date Time Source
KMLJ Decoded METAR 2021/09/16 20:55 UTC NOAA

Milledgeville, Baldwin County Airport, GA, United States (KMLJ) 33-09-15N 083-14-26W
Sep 16, 2021 - 04:55 PM EDT / 2021.09.16 2055 UTC
Wind: from the ENE (070 degrees) at 7 MPH (6 KT):0
Visibility: 10 mile(s):0
Temperature: 78 F (26 C)
Dew Point: 73 F (23 C)
Relative Humidity: 83%
Pressure (altimeter): 30.03 in. Hg (1016 hPa)
ob: KMLJ 162055Z AUTO 07006KT 10SM 26/23 A3003 RMK AO2
cycle: 21

Station Type Date Time Source
KMLJ TAF UTC NOAA

Error!

Example: see airport list